sensor_id;sensor_type;location;lat;lon;timestamp;pressure;altitude;pressure_sealevel;temperature;humidity
50302;BME280;36550;50.472;19.744;2023-04-03T00:02:32;98427.35;;;0.62;96.48
50302;BME280;36550;50.472;19.744;2023-04-03T00:05:16;98432.52;;;0.57;96.83
50302;BME280;36550;50.472;19.744;2023-04-03T00:08:00;98430.22;;;0.52;96.79
50302;BME280;36550;50.472;19.744;2023-04-03T00:10:45;98430.16;;;0.48;96.99
50302;BME280;36550;50.472;19.744;2023-04-03T00:13:29;98430.60;;;0.47;97.08
50302;BME280;36550;50.472;19.744;2023-04-03T00:16:13;98430.85;;;0.44;97.35
50302;BME280;36550;50.472;19.744;2023-04-03T00:18:57;98429.79;;;0.47;97.26
50302;BME280;36550;50.472;19.744;2023-04-03T00:21:41;98430.59;;;0.47;97.35
50302;BME280;36550;50.472;19.744;2023-04-03T00:24:25;98431.50;;;0.47;97.24
50302;BME280;36550;50.472;19.744;2023-04-03T00:27:09;98436.98;;;0.45;97.15
50302;BME280;36550;50.472;19.744;2023-04-03T00:29:54;98434.55;;;0.45;97.17
50302;BME280;36550;50.472;19.744;2023-04-03T00:32:38;98438.27;;;0.46;97.16
50302;BME280;36550;50.472;19.744;2023-04-03T00:35:22;98437.95;;;0.44;97.18
50302;BME280;36550;50.472;19.744;2023-04-03T00:38:07;98437.86;;;0.44;97.22
50302;BME280;36550;50.472;19.744;2023-04-03T00:40:51;98438.69;;;0.42;97.30
50302;BME280;36550;50.472;19.744;2023-04-03T00:43:35;98438.14;;;0.42;97.29
50302;BME280;36550;50.472;19.744;2023-04-03T00:46:19;98434.27;;;0.43;97.27
50302;BME280;36550;50.472;19.744;2023-04-03T00:49:03;98435.95;;;0.45;97.21
50302;BME280;36550;50.472;19.744;2023-04-03T00:51:47;98434.77;;;0.48;97.15
50302;BME280;36550;50.472;19.744;2023-04-03T00:54:31;98438.70;;;0.47;97.05
50302;BME280;36550;50.472;19.744;2023-04-03T00:57:15;98439.66;;;0.44;97.05
50302;BME280;36550;50.472;19.744;2023-04-03T01:00:02;98438.28;;;0.46;97.06
50302;BME280;36550;50.472;19.744;2023-04-03T01:02:46;98438.38;;;0.47;97.11
50302;BME280;36550;50.472;19.744;2023-04-03T01:05:30;98441.15;;;0.45;97.27
50302;BME280;36550;50.472;19.744;2023-04-03T01:08:14;98437.25;;;0.44;97.36
50302;BME280;36550;50.472;19.744;2023-04-03T01:10:58;98443.09;;;0.45;97.49
50302;BME280;36550;50.472;19.744;2023-04-03T01:13:42;98444.57;;;0.45;97.42
50302;BME280;36550;50.472;19.744;2023-04-03T01:16:26;98449.13;;;0.44;97.43
50302;BME280;36550;50.472;19.744;2023-04-03T01:19:13;98452.34;;;0.42;97.62
50302;BME280;36550;50.472;19.744;2023-04-03T01:22:19;98455.92;;;0.37;98.05
50302;BME280;36550;50.472;19.744;2023-04-03T01:25:07;98456.42;;;0.33;98.24
50302;BME280;36550;50.472;19.744;2023-04-03T01:27:51;98456.55;;;0.31;98.35
50302;BME280;36550;50.472;19.744;2023-04-03T01:30:43;98455.50;;;0.26;98.45
50302;BME280;36550;50.472;19.744;2023-04-03T01:33:30;98455.25;;;0.25;98.38
50302;BME280;36550;50.472;19.744;2023-04-03T01:36:16;98459.01;;;0.24;98.52
50302;BME280;36550;50.472;19.744;2023-04-03T01:39:00;98468.06;;;0.21;98.63
50302;BME280;36550;50.472;19.744;2023-04-03T01:41:44;98468.44;;;0.17;98.69
50302;BME280;36550;50.472;19.744;2023-04-03T01:44:29;98467.86;;;0.14;98.64
50302;BME280;36550;50.472;19.744;2023-04-03T01:47:13;98468.56;;;0.12;98.60
50302;BME280;36550;50.472;19.744;2023-04-03T01:49:57;98469.40;;;0.12;98.71
50302;BME280;36550;50.472;19.744;2023-04-03T01:52:40;98472.80;;;0.11;98.81
50302;BME280;36550;50.472;19.744;2023-04-03T01:55:24;98476.58;;;0.10;98.89
50302;BME280;36550;50.472;19.744;2023-04-03T01:58:08;98478.30;;;0.08;99.11
50302;BME280;36550;50.472;19.744;2023-04-03T02:00:52;98480.39;;;0.04;99.18
50302;BME280;36550;50.472;19.744;2023-04-03T02:03:36;98478.64;;;-0.01;99.22
50302;BME280;36550;50.472;19.744;2023-04-03T02:06:20;98479.33;;;-0.04;99.53
50302;BME280;36550;50.472;19.744;2023-04-03T02:09:04;98481.33;;;-0.05;99.66
50302;BME280;36550;50.472;19.744;2023-04-03T02:11:48;98483.39;;;-0.05;99.72
50302;BME280;36550;50.472;19.744;2023-04-03T02:14:32;98486.80;;;-0.06;99.70
50302;BME280;36550;50.472;19.744;2023-04-03T02:17:16;98484.32;;;-0.08;99.87
50302;BME280;36550;50.472;19.744;2023-04-03T02:20:00;98485.68;;;-0.11;99.88
50302;BME280;36550;50.472;19.744;2023-04-03T02:22:44;98479.84;;;-0.14;99.98
50302;BME280;36550;50.472;19.744;2023-04-03T02:25:30;98482.89;;;-0.14;99.98
50302;BME280;36550;50.472;19.744;2023-04-03T02:28:14;98483.80;;;-0.18;100.00
50302;BME280;36550;50.472;19.744;2023-04-03T02:30:58;98486.27;;;-0.16;100.00
50302;BME280;36550;50.472;19.744;2023-04-03T02:33:41;98484.86;;;-0.14;100.00
50302;BME280;36550;50.472;19.744;2023-04-03T02:36:25;98485.48;;;-0.12;100.00
50302;BME280;36550;50.472;19.744;2023-04-03T02:39:09;98487.18;;;-0.12;100.00
50302;BME280;36550;50.472;19.744;2023-04-03T02:41:53;98489.73;;;-0.08;100.00
50302;BME280;36550;50.472;19.744;2023-04-03T02:44:37;98495.30;;;-0.02;99.95
50302;BME280;36550;50.472;19.744;2023-04-03T02:47:22;98502.80;;;-0.05;99.94
50302;BME280;36550;50.472;19.744;2023-04-03T02:50:06;98502.73;;;-0.04;99.65
50302;BME280;36550;50.472;19.744;2023-04-03T02:52:50;98498.92;;;-0.07;99.38
50302;BME280;36550;50.472;19.744;2023-04-03T02:55:34;98506.05;;;-0.05;99.20
50302;BME280;36550;50.472;19.744;2023-04-03T02:58:18;98513.22;;;-0.06;99.09
50302;BME280;36550;50.472;19.744;2023-04-03T03:01:02;98513.61;;;-0.15;98.94
50302;BME280;36550;50.472;19.744;2023-04-03T03:03:46;98513.73;;;-0.19;98.96
50302;BME280;36550;50.472;19.744;2023-04-03T03:06:30;98513.80;;;-0.26;98.99
50302;BME280;36550;50.472;19.744;2023-04-03T03:09:14;98513.59;;;-0.32;99.03
50302;BME280;36550;50.472;19.744;2023-04-03T03:11:58;98514.38;;;-0.40;98.99
50302;BME280;36550;50.472;19.744;2023-04-03T03:14:41;98512.59;;;-0.47;99.01
50302;BME280;36550;50.472;19.744;2023-04-03T03:17:26;98511.33;;;-0.47;99.10
50302;BME280;36550;50.472;19.744;2023-04-03T03:20:10;98512.58;;;-0.51;99.16
50302;BME280;36550;50.472;19.744;2023-04-03T03:22:55;98511.48;;;-0.48;99.18
50302;BME280;36550;50.472;19.744;2023-04-03T03:25:41;98516.55;;;-0.46;99.20
50302;BME280;36550;50.472;19.744;2023-04-03T03:28:26;98512.30;;;-0.48;99.20
50302;BME280;36550;50.472;19.744;2023-04-03T03:31:10;98510.55;;;-0.48;99.22
50302;BME280;36550;50.472;19.744;2023-04-03T03:33:54;98517.41;;;-0.48;99.22
50302;BME280;36550;50.472;19.744;2023-04-03T03:36:38;98516.92;;;-0.50;99.26
50302;BME280;36550;50.472;19.744;2023-04-03T03:39:22;98515.11;;;-0.49;99.31
50302;BME280;36550;50.472;19.744;2023-04-03T03:42:06;98521.09;;;-0.51;99.29
50302;BME280;36550;50.472;19.744;2023-04-03T03:44:50;98525.14;;;-0.53;99.19
50302;BME280;36550;50.472;19.744;2023-04-03T03:47:35;98531.98;;;-0.57;99.20
50302;BME280;36550;50.472;19.744;2023-04-03T03:50:19;98532.84;;;-0.62;99.22
50302;BME280;36550;50.472;19.744;2023-04-03T03:53:04;98534.32;;;-0.67;99.40
50302;BME280;36550;50.472;19.744;2023-04-03T03:55:48;98537.22;;;-0.72;99.54
50302;BME280;36550;50.472;19.744;2023-04-03T03:58:32;98540.45;;;-0.78;99.61
50302;BME280;36550;50.472;19.744;2023-04-03T04:01:16;98538.79;;;-0.81;99.77
50302;BME280;36550;50.472;19.744;2023-04-03T04:04:00;98540.80;;;-0.82;99.88
50302;BME280;36550;50.472;19.744;2023-04-03T04:06:44;98541.91;;;-0.85;99.95
50302;BME280;36550;50.472;19.744;2023-04-03T04:09:28;98545.74;;;-0.85;99.92
50302;BME280;36550;50.472;19.744;2023-04-03T04:12:12;98549.20;;;-0.89;99.71
50302;BME280;36550;50.472;19.744;2023-04-03T04:14:56;98554.50;;;-0.89;99.77
50302;BME280;36550;50.472;19.744;2023-04-03T04:17:40;98557.15;;;-0.91;99.59
50302;BME280;36550;50.472;19.744;2023-04-03T04:20:24;98559.89;;;-0.91;99.46
50302;BME280;36550;50.472;19.744;2023-04-03T04:23:08;98558.61;;;-0.94;99.22
50302;BME280;36550;50.472;19.744;2023-04-03T04:25:51;98563.91;;;-0.94;99.18
50302;BME280;36550;50.472;19.744;2023-04-03T04:28:35;98567.82;;;-0.93;98.88
50302;BME280;36550;50.472;19.744;2023-04-03T04:31:19;98574.91;;;-0.96;98.69
50302;BME280;36550;50.472;19.744;2023-04-03T04:34:03;98570.92;;;-0.99;98.33
50302;BME280;36550;50.472;19.744;2023-04-03T04:36:47;98574.09;;;-1.07;98.24
50302;BME280;36550;50.472;19.744;2023-04-03T04:39:31;98577.67;;;-1.10;98.18
50302;BME280;36550;50.472;19.744;2023-04-03T04:42:15;98583.21;;;-1.11;98.19
50302;BME280;36550;50.472;19.744;2023-04-03T04:45:00;98586.80;;;-1.12;98.31
50302;BME280;36550;50.472;19.744;2023-04-03T04:47:44;98594.94;;;-1.15;98.66
50302;BME280;36550;50.472;19.744;2023-04-03T04:50:28;98589.98;;;-1.16;98.49
50302;BME280;36550;50.472;19.744;2023-04-03T04:53:11;98592.52;;;-1.11;98.36
50302;BME280;36550;50.472;19.744;2023-04-03T04:55:55;98594.14;;;-1.12;98.03
50302;BME280;36550;50.472;19.744;2023-04-03T04:58:39;98593.39;;;-1.10;97.88
50302;BME280;36550;50.472;19.744;2023-04-03T05:01:23;98595.34;;;-1.07;97.78
50302;BME280;36550;50.472;19.744;2023-04-03T05:04:07;98599.16;;;-1.03;97.72
50302;BME280;36550;50.472;19.744;2023-04-03T05:06:52;98598.70;;;-1.00;97.44
50302;BME280;36550;50.472;19.744;2023-04-03T05:09:36;98605.70;;;-0.94;97.37
50302;BME280;36550;50.472;19.744;2023-04-03T05:12:20;98601.65;;;-0.95;96.75
50302;BME280;36550;50.472;19.744;2023-04-03T05:15:05;98601.30;;;-0.91;96.72
50302;BME280;36550;50.472;19.744;2023-04-03T05:17:49;98605.76;;;-0.88;96.55
50302;BME280;36550;50.472;19.744;2023-04-03T05:20:34;98604.20;;;-0.87;95.96
50302;BME280;36550;50.472;19.744;2023-04-03T05:23:18;98607.81;;;-0.84;95.49
50302;BME280;36550;50.472;19.744;2023-04-03T05:26:02;98608.06;;;-0.78;95.07
50302;BME280;36550;50.472;19.744;2023-04-03T05:28:47;98610.90;;;-0.71;94.47
50302;BME280;36550;50.472;19.744;2023-04-03T05:31:31;98609.73;;;-0.65;93.94
50302;BME280;36550;50.472;19.744;2023-04-03T05:34:15;98610.21;;;-0.57;93.86
50302;BME280;36550;50.472;19.744;2023-04-03T05:36:59;98613.14;;;-0.50;93.63
50302;BME280;36550;50.472;19.744;2023-04-03T05:39:43;98613.51;;;-0.43;93.69
50302;BME280;36550;50.472;19.744;2023-04-03T05:42:27;98618.14;;;-0.42;92.96
50302;BME280;36550;50.472;19.744;2023-04-03T05:45:11;98618.86;;;-0.36;92.88
50302;BME280;36550;50.472;19.744;2023-04-03T05:47:55;98623.16;;;-0.34;92.21
50302;BME280;36550;50.472;19.744;2023-04-03T05:50:38;98620.60;;;-0.29;91.98
50302;BME280;36550;50.472;19.744;2023-04-03T05:53:27;98624.47;;;-0.28;91.29
50302;BME280;36550;50.472;19.744;2023-04-03T05:56:11;98624.94;;;-0.23;91.44
50302;BME280;36550;50.472;19.744;2023-04-03T05:58:55;98624.70;;;-0.17;91.12
50302;BME280;36550;50.472;19.744;2023-04-03T06:01:39;98627.12;;;-0.10;90.68
50302;BME280;36550;50.472;19.744;2023-04-03T06:04:24;98632.10;;;0.01;90.18
50302;BME280;36550;50.472;19.744;2023-04-03T06:07:11;98625.39;;;0.11;89.55
50302;BME280;36550;50.472;19.744;2023-04-03T06:09:56;98625.27;;;0.18;89.08
50302;BME280;36550;50.472;19.744;2023-04-03T06:12:40;98627.64;;;0.22;88.42
50302;BME280;36550;50.472;19.744;2023-04-03T06:15:24;98628.43;;;0.29;88.12
50302;BME280;36550;50.472;19.744;2023-04-03T06:18:08;98629.25;;;0.32;87.20
50302;BME280;36550;50.472;19.744;2023-04-03T06:20:52;98632.66;;;0.32;86.26
50302;BME280;36550;50.472;19.744;2023-04-03T06:23:36;98636.24;;;0.35;86.20
50302;BME280;36550;50.472;19.744;2023-04-03T06:26:20;98636.02;;;0.36;85.94
50302;BME280;36550;50.472;19.744;2023-04-03T06:29:04;98639.38;;;0.41;86.08
50302;BME280;36550;50.472;19.744;2023-04-03T06:31:48;98645.44;;;0.35;84.94
50302;BME280;36550;50.472;19.744;2023-04-03T06:34:32;98645.55;;;0.25;84.86
50302;BME280;36550;50.472;19.744;2023-04-03T06:37:17;98649.56;;;0.19;84.80
50302;BME280;36550;50.472;19.744;2023-04-03T06:40:02;98656.61;;;0.14;84.08
50302;BME280;36550;50.472;19.744;2023-04-03T06:42:46;98661.28;;;0.25;84.38
50302;BME280;36550;50.472;19.744;2023-04-03T06:45:30;98652.63;;;0.28;83.42
50302;BME280;36550;50.472;19.744;2023-04-03T06:48:14;98658.80;;;0.39;83.39
50302;BME280;36550;50.472;19.744;2023-04-03T06:50:59;98659.41;;;0.52;82.88
50302;BME280;36550;50.472;19.744;2023-04-03T06:53:42;98663.95;;;0.60;81.89
50302;BME280;36550;50.472;19.744;2023-04-03T06:56:26;98661.32;;;0.67;82.40
50302;BME280;36550;50.472;19.744;2023-04-03T06:59:10;98665.04;;;0.73;82.18
50302;BME280;36550;50.472;19.744;2023-04-03T07:01:57;98670.77;;;0.83;81.48
50302;BME280;36550;50.472;19.744;2023-04-03T07:04:42;98665.81;;;0.91;80.82
50302;BME280;36550;50.472;19.744;2023-04-03T07:07:26;98668.95;;;1.03;79.97
50302;BME280;36550;50.472;19.744;2023-04-03T07:10:09;98670.48;;;1.08;79.37
50302;BME280;36550;50.472;19.744;2023-04-03T07:12:53;98669.87;;;1.16;78.76
50302;BME280;36550;50.472;19.744;2023-04-03T07:15:37;98673.69;;;1.19;77.74
50302;BME280;36550;50.472;19.744;2023-04-03T07:18:21;98678.84;;;1.24;77.28
50302;BME280;36550;50.472;19.744;2023-04-03T07:21:05;98680.41;;;1.29;76.69
50302;BME280;36550;50.472;19.744;2023-04-03T07:23:49;98678.22;;;1.50;77.40
50302;BME280;36550;50.472;19.744;2023-04-03T07:26:33;98677.78;;;1.63;76.79
50302;BME280;36550;50.472;19.744;2023-04-03T07:29:17;98679.59;;;1.72;77.01
50302;BME280;36550;50.472;19.744;2023-04-03T07:32:01;98685.42;;;1.82;76.31
50302;BME280;36550;50.472;19.744;2023-04-03T07:34:45;98688.79;;;1.85;75.51
50302;BME280;36550;50.472;19.744;2023-04-03T07:37:29;98693.35;;;1.82;73.92
50302;BME280;36550;50.472;19.744;2023-04-03T07:40:13;98697.10;;;1.74;73.28
50302;BME280;36550;50.472;19.744;2023-04-03T07:42:57;98699.55;;;1.77;73.62
50302;BME280;36550;50.472;19.744;2023-04-03T07:45:41;98697.33;;;1.75;73.79
50302;BME280;36550;50.472;19.744;2023-04-03T07:48:26;98698.48;;;1.79;74.14
50302;BME280;36550;50.472;19.744;2023-04-03T07:51:10;98700.66;;;1.80;73.19
50302;BME280;36550;50.472;19.744;2023-04-03T07:53:54;98698.56;;;1.57;72.25
50302;BME280;36550;50.472;19.744;2023-04-03T07:56:37;98703.18;;;1.40;72.90
50302;BME280;36550;50.472;19.744;2023-04-03T07:59:21;98701.64;;;1.17;73.61
50302;BME280;36550;50.472;19.744;2023-04-03T08:02:05;98706.23;;;1.04;73.04
50302;BME280;36550;50.472;19.744;2023-04-03T08:04:49;98717.05;;;0.83;71.39
50302;BME280;36550;50.472;19.744;2023-04-03T08:07:33;98711.48;;;0.72;71.87
50302;BME280;36550;50.472;19.744;2023-04-03T08:10:16;98714.64;;;0.76;73.41
50302;BME280;36550;50.472;19.744;2023-04-03T08:13:01;98710.34;;;0.75;72.83
50302;BME280;36550;50.472;19.744;2023-04-03T08:15:45;98719.39;;;0.84;72.95
50302;BME280;36550;50.472;19.744;2023-04-03T08:18:28;98718.34;;;0.95;72.89
50302;BME280;36550;50.472;19.744;2023-04-03T08:21:13;98720.58;;;1.12;73.39
50302;BME280;36550;50.472;19.744;2023-04-03T08:23:56;98720.27;;;1.38;73.09
50302;BME280;36550;50.472;19.744;2023-04-03T08:26:40;98718.13;;;1.44;71.32
50302;BME280;36550;50.472;19.744;2023-04-03T08:29:24;98716.86;;;1.55;71.82
50302;BME280;36550;50.472;19.744;2023-04-03T08:32:08;98723.67;;;1.59;70.84
50302;BME280;36550;50.472;19.744;2023-04-03T08:34:52;98723.67;;;1.61;69.89
50302;BME280;36550;50.472;19.744;2023-04-03T08:37:36;98730.70;;;1.58;69.29
50302;BME280;36550;50.472;19.744;2023-04-03T08:40:20;98727.80;;;1.59;70.18
50302;BME280;36550;50.472;19.744;2023-04-03T08:45:53;98733.23;;;1.78;70.31
50302;BME280;36550;50.472;19.744;2023-04-03T08:48:40;98737.77;;;1.65;69.74
50302;BME280;36550;50.472;19.744;2023-04-03T08:51:24;98738.20;;;1.65;70.08
50302;BME280;36550;50.472;19.744;2023-04-03T08:54:14;98742.02;;;1.58;70.00
50302;BME280;36550;50.472;19.744;2023-04-03T08:57:02;98744.16;;;1.56;70.33
50302;BME280;36550;50.472;19.744;2023-04-03T08:59:47;98747.26;;;1.68;69.94
50302;BME280;36550;50.472;19.744;2023-04-03T09:05:15;98744.48;;;1.96;70.75
50302;BME280;36550;50.472;19.744;2023-04-03T09:14:07;98753.41;;;2.18;68.57
50302;BME280;36550;50.472;19.744;2023-04-03T09:16:58;98753.90;;;2.19;68.93
50302;BME280;36550;50.472;19.744;2023-04-03T09:19:49;98752.58;;;2.10;68.96
50302;BME280;36550;50.472;19.744;2023-04-03T09:22:35;98754.17;;;2.18;70.00
50302;BME280;36550;50.472;19.744;2023-04-03T09:25:31;98756.02;;;2.11;69.76
50302;BME280;36550;50.472;19.744;2023-04-03T09:28:16;98761.58;;;2.03;69.02
50302;BME280;36550;50.472;19.744;2023-04-03T09:31:00;98767.61;;;1.95;69.24
50302;BME280;36550;50.472;19.744;2023-04-03T09:33:46;98767.67;;;1.88;69.21
50302;BME280;36550;50.472;19.744;2023-04-03T09:36:40;98771.86;;;1.99;70.58
50302;BME280;36550;50.472;19.744;2023-04-03T09:39:28;98777.65;;;2.04;70.14
50302;BME280;36550;50.472;19.744;2023-04-03T09:42:17;98774.33;;;2.20;71.50
50302;BME280;36550;50.472;19.744;2023-04-03T09:45:04;98773.30;;;2.35;71.46
50302;BME280;36550;50.472;19.744;2023-04-03T09:47:48;98772.52;;;2.39;69.96
50302;BME280;36550;50.472;19.744;2023-04-03T09:50:32;98770.92;;;2.47;69.49
50302;BME280;36550;50.472;19.744;2023-04-03T09:59:12;98772.17;;;2.60;69.09
50302;BME280;36550;50.472;19.744;2023-04-03T10:01:59;98775.98;;;2.57;68.19
50302;BME280;36550;50.472;19.744;2023-04-03T10:04:43;98777.33;;;2.57;69.10
50302;BME280;36550;50.472;19.744;2023-04-03T10:07:29;98778.41;;;2.72;70.45
50302;BME280;36550;50.472;19.744;2023-04-03T10:10:18;98779.13;;;2.75;68.40
50302;BME280;36550;50.472;19.744;2023-04-03T10:13:04;98781.44;;;2.96;68.67
50302;BME280;36550;50.472;19.744;2023-04-03T10:15:56;98778.55;;;3.16;68.73
50302;BME280;36550;50.472;19.744;2023-04-03T10:19:10;98778.21;;;3.41;69.31
50302;BME280;36550;50.472;19.744;2023-04-03T10:21:49;98774.09;;;3.54;67.43
50302;BME280;36550;50.472;19.744;2023-04-03T10:24:44;98776.46;;;3.67;66.20
50302;BME280;36550;50.472;19.744;2023-04-03T10:39:35;98782.02;;;4.25;65.92
50302;BME280;36550;50.472;19.744;2023-04-03T10:45:26;98782.75;;;4.19;65.94
50302;BME280;36550;50.472;19.744;2023-04-03T10:48:11;98782.80;;;4.22;65.84
50302;BME280;36550;50.472;19.744;2023-04-03T10:56:50;98772.39;;;4.19;64.41
50302;BME280;36550;50.472;19.744;2023-04-03T11:02:25;98773.16;;;4.32;66.60
50302;BME280;36550;50.472;19.744;2023-04-03T11:05:29;98770.63;;;4.43;66.67
50302;BME280;36550;50.472;19.744;2023-04-03T11:09:01;98770.31;;;4.55;66.40
50302;BME280;36550;50.472;19.744;2023-04-03T11:11:19;98772.26;;;4.55;62.70
50302;BME280;36550;50.472;19.744;2023-04-03T11:14:16;98771.02;;;4.52;63.15
50302;BME280;36550;50.472;19.744;2023-04-03T11:17:12;98770.95;;;4.72;65.22
50302;BME280;36550;50.472;19.744;2023-04-03T11:25:43;98767.02;;;4.79;59.29
50302;BME280;36550;50.472;19.744;2023-04-03T11:28:29;98771.91;;;4.79;62.95
50302;BME280;36550;50.472;19.744;2023-04-03T11:34:16;98775.84;;;4.92;62.44
50302;BME280;36550;50.472;19.744;2023-04-03T11:37:06;98769.20;;;4.94;62.77
50302;BME280;36550;50.472;19.744;2023-04-03T11:40:00;98772.15;;;4.91;60.08
50302;BME280;36550;50.472;19.744;2023-04-03T11:42:46;98764.40;;;4.61;57.30
50302;BME280;36550;50.472;19.744;2023-04-03T11:45:36;98763.16;;;4.75;60.95
50302;BME280;36550;50.472;19.744;2023-04-03T12:15:18;98756.05;;;4.84;53.34
50302;BME280;36550;50.472;19.744;2023-04-03T12:21:06;98747.30;;;4.68;55.82
50302;BME280;36550;50.472;19.744;2023-04-03T12:24:03;98750.64;;;4.84;56.98
50302;BME280;36550;50.472;19.744;2023-04-03T12:38:30;98745.70;;;5.03;54.72
50302;BME280;36550;50.472;19.744;2023-04-03T12:47:08;98746.91;;;4.94;55.72
50302;BME280;36550;50.472;19.744;2023-04-03T12:50:00;98735.70;;;5.10;56.44
50302;BME280;36550;50.472;19.744;2023-04-03T12:52:46;98731.98;;;5.00;53.18
50302;BME280;36550;50.472;19.744;2023-04-03T12:55:32;98731.94;;;5.00;55.86
50302;BME280;36550;50.472;19.744;2023-04-03T12:58:17;98741.48;;;4.87;54.59
50302;BME280;36550;50.472;19.744;2023-04-03T13:01:11;98741.05;;;4.81;54.54
50302;BME280;36550;50.472;19.744;2023-04-03T13:03:56;98745.77;;;4.91;55.64
50302;BME280;36550;50.472;19.744;2023-04-03T13:06:41;98742.62;;;4.79;53.37
50302;BME280;36550;50.472;19.744;2023-04-03T13:09:27;98741.61;;;4.72;53.39
50302;BME280;36550;50.472;19.744;2023-04-03T13:12:13;98740.04;;;4.61;52.09
50302;BME280;36550;50.472;19.744;2023-04-03T13:15:00;98741.66;;;4.77;54.85
50302;BME280;36550;50.472;19.744;2023-04-03T13:17:44;98742.63;;;4.89;54.96
50302;BME280;36550;50.472;19.744;2023-04-03T13:20:30;98738.42;;;5.01;55.51
50302;BME280;36550;50.472;19.744;2023-04-03T13:23:15;98736.04;;;5.17;55.72
50302;BME280;36550;50.472;19.744;2023-04-03T13:26:01;98727.69;;;5.25;54.35
50302;BME280;36550;50.472;19.744;2023-04-03T13:28:46;98727.55;;;5.28;53.78
50302;BME280;36550;50.472;19.744;2023-04-03T13:31:35;98728.17;;;5.33;53.96
50302;BME280;36550;50.472;19.744;2023-04-03T13:34:19;98732.56;;;5.42;54.98
50302;BME280;36550;50.472;19.744;2023-04-03T13:37:05;98731.88;;;5.41;54.71
50302;BME280;36550;50.472;19.744;2023-04-03T13:40:09;98736.20;;;5.32;53.66
50302;BME280;36550;50.472;19.744;2023-04-03T13:42:58;98732.77;;;5.16;53.01
50302;BME280;36550;50.472;19.744;2023-04-03T13:48:49;98742.25;;;4.58;52.07
50302;BME280;36550;50.472;19.744;2023-04-03T13:51:37;98740.64;;;4.48;51.49
50302;BME280;36550;50.472;19.744;2023-04-03T13:54:31;98740.36;;;4.53;53.77
50302;BME280;36550;50.472;19.744;2023-04-03T13:57:16;98743.61;;;4.54;53.84
50302;BME280;36550;50.472;19.744;2023-04-03T14:00:18;98740.23;;;4.44;52.98
50302;BME280;36550;50.472;19.744;2023-04-03T14:03:03;98741.52;;;4.37;53.66
50302;BME280;36550;50.472;19.744;2023-04-03T14:05:55;98747.31;;;4.29;54.49
50302;BME280;36550;50.472;19.744;2023-04-03T14:08:39;98745.13;;;4.36;54.59
50302;BME280;36550;50.472;19.744;2023-04-03T14:11:26;98749.10;;;4.39;53.62
50302;BME280;36550;50.472;19.744;2023-04-03T14:14:14;98745.55;;;4.34;51.66
50302;BME280;36550;50.472;19.744;2023-04-03T14:16:59;98751.80;;;4.35;52.56
50302;BME280;36550;50.472;19.744;2023-04-03T14:19:44;98746.02;;;4.36;52.21
50302;BME280;36550;50.472;19.744;2023-04-03T14:22:30;98746.42;;;4.41;53.08
50302;BME280;36550;50.472;19.744;2023-04-03T14:25:15;98747.45;;;4.41;53.49
50302;BME280;36550;50.472;19.744;2023-04-03T14:28:00;98745.45;;;4.42;53.90
50302;BME280;36550;50.472;19.744;2023-04-03T14:30:45;98748.88;;;4.36;53.03
50302;BME280;36550;50.472;19.744;2023-04-03T14:33:29;98749.84;;;4.25;53.16
50302;BME280;36550;50.472;19.744;2023-04-03T14:36:19;98746.86;;;4.12;53.48
50302;BME280;36550;50.472;19.744;2023-04-03T14:39:04;98748.46;;;4.00;53.32
50302;BME280;36550;50.472;19.744;2023-04-03T14:41:48;98748.85;;;3.92;53.50
50302;BME280;36550;50.472;19.744;2023-04-03T14:44:32;98750.55;;;3.89;53.81
50302;BME280;36550;50.472;19.744;2023-04-03T14:47:17;98747.25;;;3.84;53.47
50302;BME280;36550;50.472;19.744;2023-04-03T14:50:03;98743.63;;;3.75;53.78
50302;BME280;36550;50.472;19.744;2023-04-03T14:52:47;98747.59;;;3.76;55.22
50302;BME280;36550;50.472;19.744;2023-04-03T14:55:32;98747.00;;;3.72;55.16
50302;BME280;36550;50.472;19.744;2023-04-03T14:58:20;98744.77;;;3.65;55.46
50302;BME280;36550;50.472;19.744;2023-04-03T15:01:04;98749.79;;;3.62;56.26
50302;BME280;36550;50.472;19.744;2023-04-03T15:03:48;98747.69;;;3.61;56.60
50302;BME280;36550;50.472;19.744;2023-04-03T15:06:32;98747.66;;;3.60;57.04
50302;BME280;36550;50.472;19.744;2023-04-03T15:09:20;98750.11;;;3.58;56.90
50302;BME280;36550;50.472;19.744;2023-04-03T15:12:05;98751.52;;;3.53;56.77
50302;BME280;36550;50.472;19.744;2023-04-03T15:14:49;98750.98;;;3.50;56.89
50302;BME280;36550;50.472;19.744;2023-04-03T15:17:33;98748.02;;;3.45;56.61
50302;BME280;36550;50.472;19.744;2023-04-03T15:20:18;98744.47;;;3.43;56.85
50302;BME280;36550;50.472;19.744;2023-04-03T15:23:02;98746.65;;;3.42;57.00
50302;BME280;36550;50.472;19.744;2023-04-03T15:25:48;98745.38;;;3.43;57.57
50302;BME280;36550;50.472;19.744;2023-04-03T15:28:33;98747.90;;;3.45;57.33
50302;BME280;36550;50.472;19.744;2023-04-03T15:31:18;98744.79;;;3.43;56.11
50302;BME280;36550;50.472;19.744;2023-04-03T15:34:02;98740.94;;;3.36;55.99
50302;BME280;36550;50.472;19.744;2023-04-03T15:36:46;98742.67;;;3.31;56.42
50302;BME280;36550;50.472;19.744;2023-04-03T15:39:30;98740.57;;;3.23;56.91
50302;BME280;36550;50.472;19.744;2023-04-03T15:42:15;98742.34;;;3.18;56.60
50302;BME280;36550;50.472;19.744;2023-04-03T15:44:58;98741.52;;;3.13;56.87
50302;BME280;36550;50.472;19.744;2023-04-03T15:47:42;98743.84;;;3.00;55.82
50302;BME280;36550;50.472;19.744;2023-04-03T15:50:26;98743.70;;;2.94;56.76
50302;BME280;36550;50.472;19.744;2023-04-03T15:53:10;98745.03;;;2.90;56.51
50302;BME280;36550;50.472;19.744;2023-04-03T15:55:54;98755.72;;;2.81;54.78
50302;BME280;36550;50.472;19.744;2023-04-03T15:58:37;98748.03;;;2.69;53.88
50302;BME280;36550;50.472;19.744;2023-04-03T16:01:21;98744.14;;;2.68;55.79
50302;BME280;36550;50.472;19.744;2023-04-03T16:04:06;98747.36;;;2.61;55.39
50302;BME280;36550;50.472;19.744;2023-04-03T16:06:50;98748.63;;;2.50;55.27
50302;BME280;36550;50.472;19.744;2023-04-03T16:09:36;98748.64;;;2.49;56.15
50302;BME280;36550;50.472;19.744;2023-04-03T16:12:20;98751.40;;;2.47;56.58
50302;BME280;36550;50.472;19.744;2023-04-03T16:15:04;98750.66;;;2.44;56.67